Time;durP1;ratioP1;P1;durP2;ratioP2;P2;SDS_P1;SDS_P2;PMS_P1;PMS_P2;Temp;Humidity;BMP_temperature;BMP_pressure;BME280_temperature;BME280_humidity;BME280_pressure;Samples;Min_cycle;Max_cycle;Signal;HPM_P1;HPM_P2
2021/12/02 00:00:20;;;;;;;0.63;0.20;;;;;;;2.32;72.27;99765.72;6136903;23;20028;-76
2021/12/02 00:02:48;;;;;;;0.55;0.55;;;;;;;2.32;71.90;99763.03;6184335;23;20027;-77
2021/12/02 00:05:22;;;;;;;0.63;0.60;;;;;;;2.27;71.55;99756.44;6162241;23;20012;-77
2021/12/02 00:07:48;;;;;;;0.32;0.20;;;;;;;2.33;72.12;99759.28;6162989;23;20131;-76
2021/12/02 00:10:17;;;;;;;0.88;0.22;;;;;;;2.39;71.74;99767.28;6165291;23;20009;-75
2021/12/02 00:12:46;;;;;;;0.30;0.17;;;;;;;2.38;71.36;99767.50;6162328;23;20013;-77
2021/12/02 00:15:21;;;;;;;1.98;0.30;;;;;;;2.38;70.91;99767.50;6162741;23;20096;-77
2021/12/02 00:17:53;;;;;;;0.25;0.15;;;;;;;2.38;70.81;99772.91;6160457;23;20009;-78
2021/12/02 00:23:32;;;;;;;5.55;0.60;;;;;;;2.36;70.94;99775.00;6187276;23;20007;-77
2021/12/02 00:26:00;;;;;;;0.50;0.28;;;;;;;2.24;70.44;99775.78;6186743;23;20006;-77
2021/12/02 00:28:30;;;;;;;0.13;0.13;;;;;;;2.19;70.51;99770.25;6162470;23;20004;-76
2021/12/02 00:31:04;;;;;;;0.20;0.20;;;;;;;2.27;70.28;99783.41;6136077;23;20013;-75
2021/12/02 00:33:53;;;;;;;6.53;0.22;;;;;;;2.26;70.50;99786.34;6185446;23;20005;-77
2021/12/02 00:36:35;;;;;;;0.90;0.30;;;;;;;2.08;69.91;99763.72;6182444;23;20025;-77
2021/12/02 00:39:06;;;;;;;1.42;0.40;;;;;;;2.02;70.10;99763.81;6163879;23;20083;-77
2021/12/02 00:41:42;;;;;;;4.75;0.70;;;;;;;2.17;69.62;99790.41;6161076;23;20041;-76
2021/12/02 00:44:08;;;;;;;0.82;0.35;;;;;;;1.94;70.02;99750.63;6131287;23;20033;-75
2021/12/02 00:46:35;;;;;;;0.80;0.28;;;;;;;2.07;69.56;99772.03;6106592;23;20530;-77
2021/12/02 00:49:13;;;;;;;3.42;0.50;;;;;;;1.99;69.65;99756.19;6134722;23;20081;-78
2021/12/02 00:51:46;;;;;;;2.88;0.50;;;;;;;2.12;69.33;99785.69;6156098;23;20466;-76
2021/12/02 00:54:12;;;;;;;0.20;0.17;;;;;;;2.11;68.94;99794.00;6156608;23;20461;-74
2021/12/02 00:56:43;;;;;;;1.40;0.52;;;;;;;2.06;68.95;99797.38;6128500;23;20024;-77
2021/12/02 00:59:11;;;;;;;0.52;0.40;;;;;;;2.01;69.17;99792.66;6159848;23;20009;-76
2021/12/02 01:01:38;;;;;;;0.30;0.22;;;;;;;1.84;69.26;99773.56;6108401;23;20005;-77
2021/12/02 01:04:26;;;;;;;0.90;0.30;;;;;;;1.94;68.67;99788.38;6130861;23;20020;-78
2021/12/02 01:06:52;;;;;;;1.48;0.35;;;;;;;1.84;68.45;99789.75;6115309;23;20189;-79
2021/12/02 01:09:18;;;;;;;1.30;0.55;;;;;;;1.81;68.67;99768.63;6132342;23;20005;-79
2021/12/02 01:11:44;;;;;;;0.45;0.20;;;;;;;1.70;68.56;99766.66;6134233;23;20229;-76
2021/12/02 01:14:10;;;;;;;1.65;0.45;;;;;;;1.70;68.45;99782.84;6130635;23;20305;-77
2021/12/02 01:16:42;;;;;;;4.03;0.52;;;;;;;1.70;68.12;99774.75;6159237;23;20001;-76
2021/12/02 01:19:20;;;;;;;;;;;;;;;;;;;;;
2021/12/02 01:21:51;;;;;;;1.63;0.40;;;;;;;1.62;68.63;99796.59;6157066;23;20069;-79
2021/12/02 01:24:26;;;;;;;0.30;0.20;;;;;;;1.55;68.11;99793.97;6131976;23;20006;-77
2021/12/02 01:26:54;;;;;;;0.25;0.20;;;;;;;1.55;67.88;99802.88;6132668;23;20025;-78
2021/12/02 01:29:25;;;;;;;3.00;0.28;;;;;;;1.62;68.17;99821.69;6130679;23;20092;-78
2021/12/02 01:32:00;;;;;;;0.57;0.20;;;;;;;1.59;68.00;99819.41;6131454;23;20012;-78
2021/12/02 01:34:29;;;;;;;2.15;0.60;;;;;;;1.39;68.79;99808.84;6131866;23;20359;-78
2021/12/02 01:36:55;;;;;;;0.77;0.30;;;;;;;1.32;68.47;99808.88;6133800;23;20139;-77
2021/12/02 01:39:50;;;;;;;8.38;0.47;;;;;;;1.34;68.26;99812.19;6133910;23;20013;-78
2021/12/02 01:42:34;;;;;;;;;;;;;;;;;;;;;
2021/12/02 01:45:03;;;;;;;1.48;0.20;;;;;;;1.25;68.63;99826.16;6158804;23;20032;-78
2021/12/02 01:47:31;;;;;;;1.60;0.50;;;;;;;1.03;68.45;99803.09;6160323;23;20036;-77
2021/12/02 01:50:01;;;;;;;1.48;0.40;;;;;;;1.16;68.89;99818.34;6157387;23;20001;-77
2021/12/02 01:52:32;;;;;;;0.50;0.20;;;;;;;1.14;68.96;99831.22;6110179;23;20013;-78
2021/12/02 01:55:16;;;;;;;7.05;0.38;;;;;;;1.06;68.84;99827.94;6158146;23;20316;-78
2021/12/02 01:58:14;;;;;;;2.08;0.20;;;;;;;1.09;68.92;99832.91;6137825;23;20371;-80
2021/12/02 02:00:54;;;;;;;0.30;0.25;;;;;;;0.87;69.17;99809.00;6136350;23;20027;-78
2021/12/02 02:03:22;;;;;;;2.05;0.40;;;;;;;0.87;68.92;99815.22;6160891;23;20010;-78
2021/12/02 02:05:56;;;;;;;0.75;0.30;;;;;;;0.75;69.29;99795.44;6136116;23;20056;-76
2021/12/02 02:08:26;;;;;;;0.30;0.13;;;;;;;0.76;69.83;99821.31;6160299;23;20624;-76
2021/12/02 02:10:55;;;;;;;0.70;0.28;;;;;;;0.92;69.80;99843.34;6157611;23;20009;-75
2021/12/02 02:13:25;;;;;;;0.38;0.10;;;;;;;0.90;69.43;99850.84;6132992;23;20013;-79
2021/12/02 02:15:52;;;;;;;2.65;0.30;;;;;;;0.87;69.23;99850.22;6131578;23;20061;-78
2021/12/02 02:18:23;;;;;;;7.35;0.73;;;;;;;0.80;70.41;99848.59;6109764;23;20718;-79
2021/12/02 02:23:29;;;;;;;0.88;0.20;;;;;;;0.79;70.16;99863.94;6169167;23;20006;-76
2021/12/02 02:26:14;;;;;;;;;;;;;;;;;;;;;
2021/12/02 02:28:40;;;;;;;4.80;0.35;;;;;;;0.58;70.31;99845.41;6160154;23;20040;-80
2021/12/02 02:31:06;;;;;;;0.28;0.20;;;;;;;0.74;71.01;99866.44;6134543;23;20009;-82
2021/12/02 02:33:48;;;;;;;;;;;;;;;;;;;;;
2021/12/02 02:36:26;;;;;;;0.98;0.38;;;;;;;0.73;71.07;99869.34;6157988;23;20028;-77
2021/12/02 02:38:56;;;;;;;1.08;0.15;;;;;;;0.68;71.34;99868.13;6132789;23;20002;-77
2021/12/02 02:41:25;;;;;;;3.45;0.30;;;;;;;0.77;71.19;99884.03;6147389;23;20018;-76
2021/12/02 02:43:55;;;;;;;0.82;0.40;;;;;;;0.67;71.42;99865.66;6156563;23;20006;-78
2021/12/02 02:46:32;;;;;;;0.20;0.17;;;;;;;0.76;71.46;99875.13;6163103;23;20021;-77
2021/12/02 02:49:03;;;;;;;0.17;0.17;;;;;;;0.77;71.53;99866.00;6158290;23;20020;-75
2021/12/02 02:51:30;;;;;;;1.63;0.43;;;;;;;0.70;71.22;99838.28;6159486;23;20010;-77
2021/12/02 02:54:06;;;;;;;;;;;;;;;;;;;;;
2021/12/02 02:56:40;;;;;;;0.32;0.28;;;;;;;0.60;71.76;99832.56;6160943;23;20028;-80
2021/12/02 02:59:18;;;;;;;2.22;0.80;;;;;;;0.69;71.98;99859.00;6156872;23;20021;-81
2021/12/02 03:01:58;;;;;;;;;;;;;;;;;;;;;
2021/12/02 03:04:33;;;;;;;0.45;0.20;;;;;;;0.58;71.16;99837.34;6165112;23;20345;-80
2021/12/02 03:07:08;;;;;;;0.38;0.38;;;;;;;0.71;71.55;99861.50;6137566;23;20069;-78
2021/12/02 03:18:31;;;;;;;1.65;0.50;;;;;;;0.62;72.73;99857.41;6161776;23;20631;-81
2021/12/02 03:21:10;;;;;;;;;;;;;;;;;;;;;
2021/12/02 03:24:10;;;;;;;;;;;;;;;;;;;;;
2021/12/02 03:26:36;;;;;;;0.20;0.20;;;;;;;0.88;72.28;99899.50;6160333;23;20021;-79
2021/12/02 03:29:40;;;;;;;;;;;;;;;;;;;;;
2021/12/02 03:32:16;;;;;;;0.77;0.45;;;;;;;0.81;72.36;99888.75;6153179;23;20061;-74
2021/12/02 03:34:53;;;;;;;4.53;0.40;;;;;;;0.76;72.95;99867.06;6155646;23;20001;-74
2021/12/02 03:37:32;;;;;;;;;;;;;;;;;;;;;
2021/12/02 03:39:58;;;;;;;0.28;0.28;;;;;;;0.85;72.80;99887.31;6150212;23;20092;-73
2021/12/02 03:42:33;;;;;;;0.50;0.50;;;;;;;0.97;73.16;99892.81;6160496;23;20008;-81
2021/12/02 03:44:59;;;;;;;2.30;0.30;;;;;;;0.87;72.89;99863.66;6129600;23;20044;-77
2021/12/02 03:47:25;;;;;;;6.80;0.82;;;;;;;0.90;72.65;99875.06;6159586;23;20387;-78
2021/12/02 03:49:50;;;;;;;1.05;0.55;;;;;;;0.94;73.14;99874.41;6154388;23;20028;-79
2021/12/02 03:52:18;;;;;;;1.20;0.40;;;;;;;1.04;73.13;99887.41;6157554;23;20005;-77
2021/12/02 03:54:50;;;;;;;2.00;0.30;;;;;;;0.87;73.09;99869.06;6128139;23;20585;-77
2021/12/02 03:57:18;;;;;;;3.67;0.40;;;;;;;1.00;73.05;99886.19;6156660;23;20060;-77
2021/12/02 03:59:44;;;;;;;0.68;0.40;;;;;;;0.97;72.64;99875.84;6130139;23;20093;-78
2021/12/02 04:02:09;;;;;;;0.43;0.13;;;;;;;0.91;72.54;99876.72;6105659;23;20010;-76
2021/12/02 04:04:37;;;;;;;0.45;0.32;;;;;;;0.81;71.45;99863.72;6160342;23;20005;-75
2021/12/02 04:07:03;;;;;;;0.93;0.35;;;;;;;0.80;72.83;99876.34;6155969;23;20029;-73
2021/12/02 04:09:48;;;;;;;0.63;0.55;;;;;;;0.61;73.29;99861.13;6107781;23;20020;-75
2021/12/02 04:12:46;;;;;;;0.57;0.30;;;;;;;0.60;72.96;99862.16;6160158;23;20005;-73
2021/12/02 04:15:35;;;;;;;2.63;0.40;;;;;;;0.66;73.96;99866.72;6127183;23;20009;-75
2021/12/02 04:18:00;;;;;;;3.35;0.50;;;;;;;0.74;73.70;99871.81;6126792;23;20077;-73
2021/12/02 04:20:26;;;;;;;2.60;0.82;;;;;;;0.73;74.21;99864.81;6128016;23;20392;-73
2021/12/02 04:22:55;;;;;;;4.38;0.63;;;;;;;0.80;73.61;99860.19;6108986;23;20476;-76
2021/12/02 04:25:22;;;;;;;0.60;0.20;;;;;;;0.93;74.25;99863.88;6157168;23;20021;-77
2021/12/02 04:27:51;;;;;;;1.10;0.38;;;;;;;1.07;73.63;99876.22;6129989;23;20096;-74
2021/12/02 04:30:22;;;;;;;1.35;0.63;;;;;;;1.04;74.23;99860.50;6158167;23;20001;-75
2021/12/02 04:32:56;;;;;;;0.35;0.25;;;;;;;1.09;73.64;99852.56;6154866;23;20073;-73
2021/12/02 04:35:25;;;;;;;1.58;0.28;;;;;;;1.23;73.72;99858.69;6156934;23;20080;-77
2021/12/02 04:37:56;;;;;;;2.00;0.30;;;;;;;1.22;72.87;99862.44;6157848;23;20002;-75
2021/12/02 04:40:24;;;;;;;3.30;0.45;;;;;;;1.33;73.16;99875.19;6113313;23;20024;-76
2021/12/02 04:42:50;;;;;;;0.98;0.30;;;;;;;1.30;72.93;99864.03;6133079;23;20499;-75
2021/12/02 04:45:23;;;;;;;0.82;0.32;;;;;;;1.42;72.86;99878.44;6158530;23;20009;-75
2021/12/02 04:47:48;;;;;;;3.00;0.60;;;;;;;1.43;72.88;99869.34;6153713;23;20014;-76
2021/12/02 04:50:16;;;;;;;0.98;0.30;;;;;;;1.39;72.32;99862.72;6157993;23;20101;-74
2021/12/02 04:52:42;;;;;;;8.38;0.68;;;;;;;1.43;72.48;99853.16;6154387;23;20009;-75
2021/12/02 04:55:08;;;;;;;1.33;0.20;;;;;;;1.45;72.06;99848.38;6159155;23;20021;-75
2021/12/02 04:57:36;;;;;;;3.65;0.40;;;;;;;1.57;71.96;99876.22;6155719;23;20620;-74
2021/12/02 05:00:05;;;;;;;0.30;0.30;;;;;;;1.49;72.06;99848.72;6156705;23;20029;-74
2021/12/02 05:02:40;;;;;;;;;;;;;;;;;;;;;
2021/12/02 05:05:08;;;;;;;0.65;0.13;;;;;;;1.42;70.93;99867.66;6158888;23;20084;-77
2021/12/02 05:07:45;;;;;;;0.93;0.30;;;;;;;1.34;71.58;99870.63;6157720;23;20076;-77
2021/12/02 05:10:18;;;;;;;0.45;0.25;;;;;;;1.14;71.77;99855.44;6160223;23;20016;-79
2021/12/02 05:12:46;;;;;;;4.40;0.35;;;;;;;1.02;72.19;99835.63;6161466;23;20002;-78
2021/12/02 05:15:24;;;;;;;;;;;;;;;;;;;;;
2021/12/02 05:18:17;;;;;;;0.50;0.30;;;;;;;1.11;72.22;99845.09;6159402;23;20025;-77
2021/12/02 05:21:00;;;;;;;;;;;;;;;;;;;;;
2021/12/02 05:23:27;;;;;;;1.63;0.35;;;;;;;1.13;71.95;99839.50;6156588;23;20029;-79
2021/12/02 05:26:11;;;;;;;1.33;0.30;;;;;;;1.35;72.71;99858.81;6156952;23;20009;-78
2021/12/02 05:28:36;;;;;;;1.17;0.40;;;;;;;1.26;72.68;99841.28;6156344;23;20028;-75
2021/12/02 05:31:07;;;;;;;0.73;0.40;;;;;;;1.36;72.34;99852.38;6158841;23;20413;-77
2021/12/02 05:33:40;;;;;;;0.55;0.38;;;;;;;1.35;72.63;99845.34;6157976;23;20006;-80
2021/12/02 05:36:11;;;;;;;5.43;0.50;;;;;;;1.36;72.89;99850.50;6164972;23;20082;-78
2021/12/02 05:38:46;;;;;;;0.15;0.15;;;;;;;1.36;72.46;99847.00;6169410;23;20006;-77
2021/12/02 05:41:35;;;;;;;1.97;0.40;;;;;;;1.44;72.64;99870.97;6170177;23;20017;-79
2021/12/02 05:44:01;;;;;;;0.70;0.15;;;;;;;1.53;72.34;99885.81;6169974;23;20017;-79
2021/12/02 05:46:27;;;;;;;2.13;0.30;;;;;;;1.47;71.72;99873.22;6145880;23;20017;-80
2021/12/02 05:48:55;;;;;;;0.82;0.30;;;;;;;1.59;72.21;99884.09;6142420;23;20593;-80
2021/12/02 05:51:20;;;;;;;1.60;0.35;;;;;;;1.67;71.91;99885.72;6169032;23;20005;-79
2021/12/02 05:54:04;;;;;;;1.63;0.75;;;;;;;1.72;71.76;99881.31;6158590;23;20421;-80
2021/12/02 05:56:29;;;;;;;0.52;0.40;;;;;;;1.64;72.10;99859.22;6133674;23;20440;-80
2021/12/02 05:58:59;;;;;;;2.88;0.30;;;;;;;1.71;71.66;99857.28;6130429;23;20013;-80
2021/12/02 06:01:30;;;;;;;3.42;0.40;;;;;;;1.62;71.48;99845.94;6133319;23;20006;-80
2021/12/02 06:04:11;;;;;;;;;;;;;;;;;;;;;
2021/12/02 06:06:44;;;;;;;1.55;0.32;;;;;;;1.51;71.18;99828.63;6156672;23;20045;-79
2021/12/02 06:09:20;;;;;;;;;;;;;;;;;;;;;
2021/12/02 06:11:55;;;;;;;5.03;0.35;;;;;;;1.67;71.62;99853.38;6159350;23;20057;-78
2021/12/02 06:14:41;;;;;;;4.35;0.20;;;;;;;1.67;71.74;99842.59;6159943;23;20020;-78
2021/12/02 06:17:50;;;;;;;7.15;0.60;;;;;;;1.71;71.95;99849.19;6159174;23;20037;-78
2021/12/02 06:20:17;;;;;;;1.38;0.20;;;;;;;2.01;71.85;99887.03;6146608;23;20006;-78
2021/12/02 06:22:44;;;;;;;0.70;0.15;;;;;;;2.16;72.44;99892.09;6157167;23;20356;-78
2021/12/02 06:27:51;;;;;;;3.53;0.60;;;;;;;2.39;71.62;99879.78;6160308;23;20423;-79
2021/12/02 06:30:27;;;;;;;6.47;0.20;;;;;;;2.44;71.38;99879.97;6133283;23;20065;-82
2021/12/02 06:32:53;;;;;;;1.75;0.10;;;;;;;2.47;71.09;99884.91;6158124;23;20009;-79
2021/12/02 06:35:29;;;;;;;;;;;;;;;;;;;;;
2021/12/02 06:37:55;;;;;;;0.85;0.28;;;;;;;2.70;69.79;99902.25;6160329;23;20368;-82
2021/12/02 06:43:15;;;;;;;6.32;0.70;;;;;;;2.71;69.68;99887.72;6131627;23;20009;-81
2021/12/02 06:45:44;;;;;;;3.42;0.10;;;;;;;2.69;69.44;99882.56;6170497;23;19998;-80
2021/12/02 06:48:10;;;;;;;0.47;0.17;;;;;;;2.86;69.24;99909.75;6142089;23;20017;-81
2021/12/02 06:50:37;;;;;;;0.68;0.45;;;;;;;3.05;68.52;99909.69;6141617;23;20013;-80
2021/12/02 06:53:09;;;;;;;0.35;0.20;;;;;;;3.12;68.98;99905.03;6108674;23;20013;-81
2021/12/02 06:55:34;;;;;;;2.72;0.55;;;;;;;3.07;68.42;99894.91;6136436;23;20048;-82
2021/12/02 06:58:00;;;;;;;1.23;0.47;;;;;;;3.07;68.29;99902.22;6133893;23;20307;-77
2021/12/02 07:00:26;;;;;;;2.05;0.35;;;;;;;3.09;67.97;99897.38;6159070;23;20006;-78
2021/12/02 07:02:55;;;;;;;1.20;1.10;;;;;;;3.23;67.96;99919.66;6108371;23;20029;-78
2021/12/02 07:05:23;;;;;;;0.73;0.30;;;;;;;3.16;67.70;99905.41;6133719;23;20068;-78
2021/12/02 07:07:49;;;;;;;0.50;0.20;;;;;;;3.20;67.54;99915.53;6133228;23;20005;-77
2021/12/02 07:10:19;;;;;;;1.38;0.28;;;;;;;3.27;67.50;99921.66;6157985;23;20012;-77
2021/12/02 07:12:47;;;;;;;1.83;0.55;;;;;;;3.31;67.03;99922.00;6133157;23;20744;-80
2021/12/02 07:15:19;;;;;;;3.88;0.10;;;;;;;3.32;66.80;99916.38;6156597;23;20009;-78
2021/12/02 07:17:57;;;;;;;0.30;0.20;;;;;;;3.43;66.59;99949.06;6133578;23;20013;-78
2021/12/02 07:20:29;;;;;;;0.35;0.20;;;;;;;3.38;66.75;99938.16;6133949;23;20006;-77
2021/12/02 07:22:58;;;;;;;0.57;0.20;;;;;;;3.30;66.09;99926.59;6159482;23;20020;-78
2021/12/02 07:25:27;;;;;;;0.43;0.25;;;;;;;3.44;66.79;99948.03;6108439;23;20013;-77
2021/12/02 07:27:53;;;;;;;0.03;0.03;;;;;;;3.27;66.47;99921.66;6136911;23;20033;-83
2021/12/02 07:30:54;;;;;;;;;;;;;;;;;;;;;
2021/12/02 07:33:29;;;;;;;1.33;0.38;;;;;;;3.43;66.62;99954.47;6161028;23;20021;-78
2021/12/02 07:35:55;;;;;;;1.20;0.22;;;;;;;3.34;66.86;99948.59;6133307;23;20020;-77
2021/12/02 07:38:34;;;;;;;3.10;0.43;;;;;;;3.34;66.96;99963.97;6132696;23;20072;-78
2021/12/02 07:41:27;;;;;;;2.53;0.30;;;;;;;3.17;67.26;99948.41;6144396;23;20103;-77
2021/12/02 07:43:59;;;;;;;0.95;0.40;;;;;;;2.96;67.14;99920.84;6186126;23;20001;-77
2021/12/02 07:46:25;;;;;;;2.07;0.17;;;;;;;3.11;67.14;99960.97;6137386;23;20020;-78
2021/12/02 07:48:55;;;;;;;5.68;0.50;;;;;;;3.01;67.45;99954.44;6137042;23;20295;-78
2021/12/02 07:51:27;;;;;;;2.83;1.27;;;;;;;2.93;67.44;99959.09;6162417;23;20001;-76
2021/12/02 07:53:53;;;;;;;2.65;0.43;;;;;;;2.93;67.58;99963.69;6160625;23;20077;-76
2021/12/02 07:56:22;;;;;;;0.80;0.30;;;;;;;2.92;67.88;99972.81;6112856;23;20036;-77
2021/12/02 07:58:49;;;;;;;0.10;0.10;;;;;;;2.84;67.27;99984.78;6162502;23;20009;-78
2021/12/02 08:01:16;;;;;;;2.88;0.20;;;;;;;2.75;67.63;99986.94;6162723;23;20012;-80
2021/12/02 08:03:45;;;;;;;0.20;0.10;;;;;;;2.57;67.63;99971.56;6139151;23;20064;-77
2021/12/02 08:06:24;;;;;;;;;;;;;;;;;;;;;
2021/12/02 08:08:51;;;;;;;0.47;0.20;;;;;;;2.50;68.37;99980.78;6173120;23;20092;-80
2021/12/02 08:11:24;;;;;;;1.25;0.60;;;;;;;2.44;68.46;99987.91;6116169;23;20067;-79
2021/12/02 08:14:01;;;;;;;;;;;;;;;;;;;;;
2021/12/02 08:17:27;;;;;;;0.55;0.30;;;;;;;2.49;69.37;100006.94;6190924;23;20040;-80
2021/12/02 08:23:34;;;;;;;0.47;0.40;;;;;;;2.37;69.86;100003.34;6064239;23;20095;-80
2021/12/02 08:26:23;;;;;;;0.32;0.30;;;;;;;2.43;69.85;100015.94;6066505;23;20010;-79
2021/12/02 08:29:09;;;;;;;2.35;0.30;;;;;;;2.31;70.40;99998.81;6047246;23;20497;-79
2021/12/02 08:31:37;;;;;;;;;;;;;;;2.48;70.30;100024.19;6071605;23;20185;-79
2021/12/02 08:34:20;;;;;;;0.35;0.13;;;;;;;2.30;70.26;99997.19;6044798;23;20017;-78
2021/12/02 08:36:50;;;;;;;0.30;0.20;;;;;;;2.34;70.22;100006.50;6061448;23;20013;-79
2021/12/02 08:39:41;;;;;;;;;;;;;;;;;;;;;
2021/12/02 08:42:20;;;;;;;;;;;;;;;;;;;;;
2021/12/02 08:45:06;;;;;;;1.83;0.25;;;;;;;2.52;71.00;100043.47;6156047;23;20041;-80
2021/12/02 08:47:42;;;;;;;;;;;;;;;2.55;70.37;100049.25;6159815;23;20376;-79
2021/12/02 08:50:54;;;;;;;;;;;;;;;;;;;;;
2021/12/02 08:53:32;;;;;;;3.58;0.57;;;;;;;2.48;70.99;100043.06;6158962;23;20036;-80
2021/12/02 08:55:59;;;;;;;0.75;0.10;;;;;;;2.39;71.03;100023.63;6135579;23;20009;-79
2021/12/02 08:58:24;;;;;;;4.57;0.50;;;;;;;2.46;70.98;100028.19;6162521;23;20385;-81
2021/12/02 09:00:58;;;;;;;0.55;0.20;;;;;;;2.63;71.15;100053.56;6160916;23;19997;-79
2021/12/02 09:03:36;;;;;;;;;;;;;;;;;;;;;
2021/12/02 09:06:02;;;;;;;0.28;0.15;;;;;;;2.69;71.25;100057.25;6139337;23;20436;-79
2021/12/02 09:08:35;;;;;;;3.40;0.38;;;;;;;2.76;71.39;100060.66;6159820;23;20016;-78
2021/12/02 09:11:11;;;;;;;;;;;;;;;;;;;;;
2021/12/02 09:13:56;;;;;;;;;;;;;;;;;;;;;
2021/12/02 09:16:45;;;;;;;;;;;;;;;;;;;;;
2021/12/02 09:19:19;;;;;;;7.47;1.05;;;;;;;3.03;71.37;100055.81;6160673;23;20028;-79
2021/12/02 09:21:44;;;;;;;0.52;0.40;;;;;;;3.17;72.11;100043.00;6158330;23;20005;-85
2021/12/02 09:24:18;;;;;;;2.00;0.25;;;;;;;3.89;73.14;100028.69;6166013;23;20425;-85
2021/12/02 09:26:44;;;;;;;2.63;0.20;;;;;;;5.40;71.29;100078.72;6165545;23;20005;-86
2021/12/02 09:29:29;;;;;;;;;;;;;;;;;;;;;
2021/12/02 09:31:58;;;;;;;0.20;0.20;;;;;;;7.98;66.73;100071.72;6165661;23;20040;-78
2021/12/02 09:34:25;;;;;;;1.23;0.43;;;;;;;9.01;63.77;100094.34;6160530;23;20005;-79
2021/12/02 09:36:51;;;;;;;0.50;0.10;;;;;;;9.79;61.38;100099.06;6160935;23;20006;-79
2021/12/02 09:39:32;;;;;;;;;;;;;;;;;;;;;
2021/12/02 09:42:15;;;;;;;1.88;0.30;;;;;;;11.24;57.17;100086.22;6160897;23;20045;-80
2021/12/02 09:44:53;;;;;;;0.55;0.20;;;;;;;11.88;55.96;100092.78;6164589;23;20037;-81
2021/12/02 09:47:20;;;;;;;0.93;0.35;;;;;;;12.39;53.14;100080.69;6163678;23;20028;-79
2021/12/02 09:49:46;;;;;;;0.65;0.40;;;;;;;13.00;52.89;100095.78;6160945;23;20009;-80
2021/12/02 09:52:28;;;;;;;0.30;0.10;;;;;;;13.70;50.85;100107.38;6159653;23;20253;-82
2021/12/02 10:06:00;;;;;;;;;;;;;;;;;;;;;
2021/12/02 10:15:09;;;;;;;;;;;;;;;;;;;;;
2021/12/02 10:17:52;;;;;;;0.47;0.28;;;;;;;15.74;38.38;100129.00;6054431;23;20050;-79
2021/12/02 10:23:20;;;;;;;0.30;0.10;;;;;;;16.42;36.99;100136.63;6158855;23;20094;-81
2021/12/02 10:26:18;;;;;;;0.43;0.20;;;;;;;16.93;35.56;100141.72;6137948;23;20009;-78
2021/12/02 10:29:03;;;;;;;0.30;0.20;;;;;;;17.08;34.99;100153.50;6045347;23;20354;-78
2021/12/02 10:31:43;;;;;;;;;;;;;;;;;;;;;
2021/12/02 10:34:21;;;;;;;0.32;0.17;;;;;;;17.59;33.75;100152.09;6137082;23;20029;-78
2021/12/02 10:37:23;;;;;;;;;;;;;;;;;;;;;
2021/12/02 10:40:17;;;;;;;1.00;0.25;;;;;;;18.16;33.00;100158.78;6160811;23;20025;-79
2021/12/02 10:42:51;;;;;;;0.70;0.20;;;;;;;18.42;33.03;100156.03;6123316;23;20017;-79
2021/12/02 10:45:41;;;;;;;1.02;0.20;;;;;;;18.98;32.91;100156.19;6162005;23;20013;-78
2021/12/02 10:48:47;;;;;;;3.42;0.17;;;;;;;19.23;29.90;100138.97;6159928;23;20001;-78
2021/12/02 10:52:00;;;;;;;0.30;0.10;;;;;;;19.47;29.80;100142.00;6156332;23;20012;-79
2021/12/02 10:57:27;;;;;;;0.68;0.20;;;;;;;19.54;28.09;100127.63;6161369;23;20010;-80
2021/12/02 11:00:41;;;;;;;0.45;0.20;;;;;;;19.63;28.38;100136.69;6136489;23;20068;-80
2021/12/02 11:03:43;;;;;;;0.68;0.20;;;;;;;20.08;27.77;100140.03;6157813;23;20893;-79
2021/12/02 11:06:39;;;;;;;0.32;0.20;;;;;;;20.12;26.90;100127.13;6159955;23;20412;-80
2021/12/02 11:09:35;;;;;;;0.20;0.20;;;;;;;20.61;28.71;100141.25;6118983;23;20011;-80
2021/12/02 11:12:49;;;;;;;;;;;;;;;;;;;;;
2021/12/02 11:15:24;;;;;;;0.93;0.20;;;;;;;20.82;26.18;100118.19;6097208;23;20085;-78
2021/12/02 11:18:10;;;;;;;;;;;;;;;;;;;;;
2021/12/02 11:21:24;;;;;;;2.40;0.20;;;;;;;21.61;26.28;100134.78;6159461;23;20024;-76
2021/12/02 11:24:42;;;;;;;0.40;0.20;;;;;;;22.25;24.88;100151.88;6155927;23;20028;-77
2021/12/02 11:28:14;;;;;;;1.65;0.30;;;;;;;22.47;25.72;100134.69;6113901;23;20005;-76
2021/12/02 11:30:41;;;;;;;0.88;0.10;;;;;;;22.43;23.52;100144.91;6072209;23;20024;-76
2021/12/02 11:33:45;;;;;;;;;;;;;;;;;;;;;
2021/12/02 11:36:31;;;;;;;0.75;0.50;;;;;;;22.89;24.26;100138.19;6155051;23;20032;-75
2021/12/02 11:39:34;;;;;;;;;;;;;;;;;;;;;
2021/12/02 11:45:45;;;;;;;;;;;;;;;;;;;;;
2021/12/02 11:48:55;;;;;;;0.30;0.20;;;;;;;23.92;22.71;100161.59;6160236;23;20053;-75
2021/12/02 11:58:47;;;;;;;0.30;0.20;;;;;;;24.49;21.79;100145.25;6152914;23;20595;-76
2021/12/02 12:02:00;;;;;;;0.52;0.20;;;;;;;24.90;20.76;100165.28;6133249;23;20006;-77
2021/12/02 12:04:39;;;;;;;;;;;;;;;;;;;;;
2021/12/02 12:07:34;;;;;;;1.20;0.20;;;;;;;24.84;19.65;100160.38;6020318;23;20408;-75
2021/12/02 12:10:46;;;;;;;0.40;0.20;;;;;;;24.99;19.94;100164.25;5954030;24;20008;-78
2021/12/02 12:13:21;;;;;;;0.20;0.20;;;;;;;25.14;19.93;100168.91;6094648;23;20076;-78
2021/12/02 12:16:00;;;;;;;0.43;0.13;;;;;;;25.07;20.14;100164.00;6134924;23;20005;-78
2021/12/02 12:18:45;;;;;;;1.05;0.15;;;;;;;25.17;20.49;100151.38;6158016;23;20011;-78
2021/12/02 12:21:17;;;;;;;0.38;0.20;;;;;;;25.59;20.08;100161.72;6162085;23;20005;-78
2021/12/02 12:24:36;;;;;;;1.90;0.20;;;;;;;26.08;20.37;100159.28;6109366;23;20010;-79
2021/12/02 12:27:18;;;;;;;0.60;0.38;;;;;;;26.14;19.40;100155.00;5957643;24;20019;-79
2021/12/02 12:30:12;;;;;;;0.30;0.10;;;;;;;26.24;18.99;100161.91;6013723;23;20035;-79
2021/12/02 12:36:16;;;;;;;;;;;;;;;;;;;;;
2021/12/02 12:39:12;;;;;;;0.50;0.22;;;;;;;27.13;19.29;100167.81;6161147;23;20124;-77
2021/12/02 12:41:43;;;;;;;0.60;0.30;;;;;;;27.38;18.81;100149.63;6159381;22;20106;-78
2021/12/02 12:51:58;;;;;;;;;;;;;;;;;;;;;
2021/12/02 12:54:32;;;;;;;0.88;0.70;;;;;;;27.68;17.98;100147.44;6157190;23;20432;-79
2021/12/02 12:57:12;;;;;;;0.50;0.50;;;;;;;27.83;17.71;100148.38;6131532;23;20016;-79
2021/12/02 13:00:30;;;;;;;3.17;0.55;;;;;;;28.18;16.70;100158.25;6134890;23;20009;-77
2021/12/02 13:03:05;;;;;;;0.30;0.30;;;;;;;27.87;17.53;100162.44;6097535;23;20436;-79
2021/12/02 13:09:40;;;;;;;;;;;;;;;;;;;;;
2021/12/02 13:12:06;;;;;;;0.75;0.32;;;;;;;27.83;17.04;100162.44;6160662;23;20440;-77
2021/12/02 13:15:20;;;;;;;0.38;0.28;;;;;;;27.73;16.48;100153.91;6161367;23;19997;-78
2021/12/02 13:18:05;;;;;;;1.08;0.25;;;;;;;27.68;17.19;100164.31;6116845;23;20013;-78
2021/12/02 13:21:04;;;;;;;0.63;0.35;;;;;;;27.62;17.12;100137.78;6132510;23;20101;-78
2021/12/02 13:23:37;;;;;;;0.20;0.17;;;;;;;28.14;17.37;100162.22;6139039;23;20002;-79
2021/12/02 13:26:22;;;;;;;0.43;0.20;;;;;;;28.12;16.89;100170.25;6171102;23;20002;-78
2021/12/02 13:29:12;;;;;;;0.25;0.20;;;;;;;27.91;16.33;100177.31;6143573;23;20009;-77
2021/12/02 13:32:01;;;;;;;0.20;0.10;;;;;;;27.68;17.30;100150.25;6148805;23;20009;-77
2021/12/02 13:34:33;;;;;;;0.22;0.17;;;;;;;28.03;16.81;100179.84;6141175;23;20009;-80
2021/12/02 13:37:10;;;;;;;1.55;0.30;;;;;;;27.96;16.42;100176.94;6135606;23;20006;-78
2021/12/02 13:40:03;;;;;;;0.28;0.28;;;;;;;27.88;16.46;100161.25;6134958;23;20033;-78
2021/12/02 13:42:35;;;;;;;0.50;0.28;;;;;;;27.41;16.58;100149.66;6104133;23;20026;-78
2021/12/02 13:45:11;;;;;;;;;;;;;;;;;;;;;
2021/12/02 13:48:16;;;;;;;;;;;;;;;;;;;;;
2021/12/02 13:50:50;;;;;;;0.30;0.13;;;;;;;27.37;17.15;100171.28;6160952;23;20031;-77
2021/12/02 13:53:29;;;;;;;1.02;0.25;;;;;;;27.46;16.60;100176.56;6162603;23;20061;-77
2021/12/02 13:56:23;;;;;;;3.20;0.50;;;;;;;27.71;17.10;100195.63;6174223;23;20061;-76
2021/12/02 13:59:01;;;;;;;0.32;0.30;;;;;;;27.77;17.13;100188.44;6152079;23;20020;-77
2021/12/02 14:02:45;;;;;;;;;;;;;;;;;;;;;
2021/12/02 14:06:24;;;;;;;0.13;0.13;;;;;;;27.21;16.62;100168.69;6133227;23;20037;-78
2021/12/02 14:09:45;;;;;;;;;;;;;;;;;;;;;
2021/12/02 14:12:24;;;;;;;1.10;0.25;;;;;;;26.97;16.32;100175.66;6115002;23;20029;-77
2021/12/02 14:14:57;;;;;;;0.70;0.50;;;;;;;26.44;16.50;100165.38;6148666;23;20020;-79
2021/12/02 14:17:23;;;;;;;0.60;0.30;;;;;;;26.10;16.81;100165.34;6159790;23;20040;-77
2021/12/02 14:20:19;;;;;;;1.60;0.30;;;;;;;25.60;17.42;100191.34;6161212;23;20324;-79
2021/12/02 14:22:50;;;;;;;1.80;0.30;;;;;;;25.06;17.33;100195.16;6161525;23;20005;-80
2021/12/02 14:25:16;;;;;;;0.52;0.25;;;;;;;24.12;18.29;100195.94;6159355;23;20458;-79
2021/12/02 14:27:42;;;;;;;3.33;0.20;;;;;;;23.55;19.16;100208.50;6161695;23;20002;-79
2021/12/02 14:30:16;;;;;;;2.20;0.65;;;;;;;23.30;19.07;100191.91;6161333;23;20330;-79
2021/12/02 14:32:47;;;;;;;0.40;0.30;;;;;;;23.49;19.52;100205.16;6162371;23;20001;-80
2021/12/02 14:35:20;;;;;;;0.75;0.30;;;;;;;23.63;19.62;100197.16;6157823;23;20005;-79
2021/12/02 14:37:48;;;;;;;0.45;0.30;;;;;;;24.00;18.96;100196.06;6159268;23;20012;-80